Eagle Turin — 9VMG6 — position and weather

sailwx.info

Track history (hours):
 
Tides and Currents Weather Stations Pressure Air Temp Water Temp Dewpoint Dewpoint Depression Visibility Wind Speed Wind Dir Waves Ship Positions

Eagle Turin

Last reported at 2017-Jan-13 13:26 UTC. Time now 2017-Jan-16 11:07 UTC.
Position N 29°30' W 093°10'.

Length 246 m; draft 8.5 m.

Type: Ship. MMSI: 565770000.

Date/timePositionNaut miles runAvg speedWind from/ knotsBaromVisibWave heightAir tempDewpointWater temp
2017-Jan-13 13:26N 29°30' W 093°10'0 0.0
2017-Jan-13 12:32N 29°30' W 093°10'0 0.0
2017-Jan-13 11:32N 29°30' W 093°10'0 0.0
2017-Jan-13 10:29N 29°30' W 093°09'0 0.0
2017-Jan-13 09:11N 29°30' W 093°09'15 2.6
2017-Jan-13 03:33N 29°42' W 093°20'8 8.1
2017-Jan-13 02:33N 29°50' W 093°21'8 7.8
2017-Jan-13 01:33N 29°58' W 093°20'7 6.9
2017-Jan-13 00:33N 30°05' W 093°20'4 4.4
2017-Jan-12 23:33N 30°09' W 093°20'1 0.6
2017-Jan-12 22:31N 30°10' W 093°20'0 0.0
2017-Jan-12 21:31N 30°10' W 093°20'0 0.0
2017-Jan-12 20:31N 30°10' W 093°20'0 0.0
2017-Jan-12 19:31N 30°10' W 093°20'0 0.0
2017-Jan-12 08:31N 30°10' W 093°20'0 0.0
2017-Jan-12 07:31N 30°10' W 093°20'0 0.0
2017-Jan-12 06:31N 30°10' W 093°20'0 0.0
2017-Jan-12 05:31N 30°10' W 093°20'0 0.0
2017-Jan-12 04:31N 30°10' W 093°20'0 0.0
2017-Jan-12 03:31N 30°10' W 093°20'0 0.0
2017-Jan-12 02:31N 30°10' W 093°20'0 0.0
2017-Jan-12 01:31N 30°10' W 093°20'0 0.0
2017-Jan-12 00:31N 30°10' W 093°20'0 0.0
2017-Jan-11 23:31N 30°10' W 093°20'0 0.0
2017-Jan-11 22:28N 30°10' W 093°20'0 0.0
2017-Jan-11 21:31N 30°10' W 093°20'0 0.0
2017-Jan-11 20:31N 30°10' W 093°20'0 0.0
2017-Jan-11 19:31N 30°10' W 093°20'0 0.0
2017-Jan-11 18:31N 30°10' W 093°20'0 0.0
2017-Jan-11 17:31N 30°10' W 093°20'0 0.0
2017-Jan-11 16:31N 30°10' W 093°20'0 0.0
2017-Jan-11 15:31N 30°10' W 093°20'0 0.0
2017-Jan-11 14:31N 30°09' W 093°20'0 0.0
2017-Jan-11 13:31N 30°10' W 093°20'0 0.0
2017-Jan-11 12:28N 30°10' W 093°20'0 0.0
2017-Jan-11 11:31N 30°10' W 093°20'0 0.0
2017-Jan-11 10:31N 30°10' W 093°20'0 0.0
2017-Jan-11 09:31N 30°10' W 093°20'0 0.0
2017-Jan-11 08:31N 30°10' W 093°20'0 0.0
2017-Jan-11 07:31N 30°10' W 093°20'0 0.0
2017-Jan-11 06:31N 30°10' W 093°20'0 0.0
2017-Jan-11 05:31N 30°10' W 093°20'0 0.0
2017-Jan-11 04:31N 30°10' W 093°20'1 0.7
2017-Jan-11 03:34N 30°09' W 093°20'6 6.1
2017-Jan-11 02:33N 30°03' W 093°20'6 6.5
2017-Jan-11 01:33N 29°56' W 093°20'8 7.6
2017-Jan-11 00:33N 29°49' W 093°21'8 8.3
2017-Jan-10 23:34N 29°41' W 093°20'  
2017-Jan-05 14:27N 29°55' W 093°54'2 0.0
2017-Jan-03 16:20N 29°56' W 093°52'5 5.9
2017-Jan-03 15:33N 29°52' W 093°56'6 5.7
2017-Jan-03 14:33N 29°47' W 093°57'7 7.2
2017-Jan-03 13:33N 29°42' W 093°51'  
Track history (hours):
 
Tides and Currents Weather Stations Pressure Air Temp Water Temp Dewpoint Dewpoint Depression Visibility Wind Speed Wind Dir Waves Ship Positions

Eagle Turin

Last reported at 2017-Jan-13 13:26 UTC. Time now 2017-Jan-16 11:07 UTC.
Position N 29°30' W 093°10'.

Length 246 m; draft 8.5 m.

Type: Ship. MMSI: 565770000.

Date/timePositionNaut miles runAvg speedWind from/ knotsBaromVisibWave heightAir tempDewpointWater temp
2017-Jan-13 13:26N 29°30' W 093°10'0 0.0
2017-Jan-13 12:32N 29°30' W 093°10'0 0.0
2017-Jan-13 11:32N 29°30' W 093°10'0 0.0
2017-Jan-13 10:29N 29°30' W 093°09'0 0.0
2017-Jan-13 09:11N 29°30' W 093°09'15 2.6
2017-Jan-13 03:33N 29°42' W 093°20'8 8.1
2017-Jan-13 02:33N 29°50' W 093°21'8 7.8
2017-Jan-13 01:33N 29°58' W 093°20'7 6.9
2017-Jan-13 00:33N 30°05' W 093°20'4 4.4
2017-Jan-12 23:33N 30°09' W 093°20'1 0.6
2017-Jan-12 22:31N 30°10' W 093°20'0 0.0
2017-Jan-12 21:31N 30°10' W 093°20'0 0.0
2017-Jan-12 20:31N 30°10' W 093°20'0 0.0
2017-Jan-12 19:31N 30°10' W 093°20'0 0.0
2017-Jan-12 08:31N 30°10' W 093°20'0 0.0
2017-Jan-12 07:31N 30°10' W 093°20'0 0.0
2017-Jan-12 06:31N 30°10' W 093°20'0 0.0
2017-Jan-12 05:31N 30°10' W 093°20'0 0.0
2017-Jan-12 04:31N 30°10' W 093°20'0 0.0
2017-Jan-12 03:31N 30°10' W 093°20'0 0.0
2017-Jan-12 02:31N 30°10' W 093°20'0 0.0
2017-Jan-12 01:31N 30°10' W 093°20'0 0.0
2017-Jan-12 00:31N 30°10' W 093°20'0 0.0
2017-Jan-11 23:31N 30°10' W 093°20'0 0.0
2017-Jan-11 22:28N 30°10' W 093°20'0 0.0
2017-Jan-11 21:31N 30°10' W 093°20'0 0.0
2017-Jan-11 20:31N 30°10' W 093°20'0 0.0
2017-Jan-11 19:31N 30°10' W 093°20'0 0.0
2017-Jan-11 18:31N 30°10' W 093°20'0 0.0
2017-Jan-11 17:31N 30°10' W 093°20'0 0.0
2017-Jan-11 16:31N 30°10' W 093°20'0 0.0
2017-Jan-11 15:31N 30°10' W 093°20'0 0.0
2017-Jan-11 14:31N 30°09' W 093°20'0 0.0
2017-Jan-11 13:31N 30°10' W 093°20'0 0.0
2017-Jan-11 12:28N 30°10' W 093°20'0 0.0
2017-Jan-11 11:31N 30°10' W 093°20'0 0.0
2017-Jan-11 10:31N 30°10' W 093°20'0 0.0
2017-Jan-11 09:31N 30°10' W 093°20'0 0.0
2017-Jan-11 08:31N 30°10' W 093°20'0 0.0
2017-Jan-11 07:31N 30°10' W 093°20'0 0.0
2017-Jan-11 06:31N 30°10' W 093°20'0 0.0
2017-Jan-11 05:31N 30°10' W 093°20'0 0.0
2017-Jan-11 04:31N 30°10' W 093°20'1 0.7
2017-Jan-11 03:34N 30°09' W 093°20'6 6.1
2017-Jan-11 02:33N 30°03' W 093°20'6 6.5
2017-Jan-11 01:33N 29°56' W 093°20'8 7.6
2017-Jan-11 00:33N 29°49' W 093°21'8 8.3
2017-Jan-10 23:34N 29°41' W 093°20'  
2017-Jan-05 14:27N 29°55' W 093°54'2 0.0
2017-Jan-03 16:20N 29°56' W 093°52'5 5.9
2017-Jan-03 15:33N 29°52' W 093°56'6 5.7
2017-Jan-03 14:33N 29°47' W 093°57'7 7.2
2017-Jan-03 13:33N 29°42' W 093°51'  

Dump ship's entire track history